createdAt,value
2022-10-19T00:00:08.623Z,700
2022-10-19T00:01:08.608Z,703
2022-10-19T00:02:08.704Z,697
2022-10-19T00:03:08.636Z,713
2022-10-19T00:04:08.969Z,701
2022-10-19T00:05:08.594Z,715
2022-10-19T00:06:08.595Z,705
2022-10-19T00:07:08.590Z,705
2022-10-19T00:08:08.600Z,700
2022-10-19T00:09:08.602Z,710
2022-10-19T00:10:08.586Z,705
2022-10-19T00:11:08.581Z,703
2022-10-19T00:12:08.598Z,707
2022-10-19T00:13:08.582Z,701
2022-10-19T00:14:08.596Z,697
2022-10-19T00:15:08.581Z,698
2022-10-19T00:16:11.324Z,697
2022-10-19T00:17:08.580Z,699
2022-10-19T00:18:08.571Z,699
2022-10-19T00:19:08.620Z,720
2022-10-19T00:20:08.604Z,707
2022-10-19T00:21:08.570Z,703
2022-10-19T00:22:11.607Z,702
2022-10-19T00:23:08.573Z,703
2022-10-19T00:24:08.586Z,702
2022-10-19T00:25:08.563Z,700
2022-10-19T00:26:08.581Z,698
2022-10-19T00:27:08.568Z,696
2022-10-19T00:28:08.566Z,691
2022-10-19T00:29:08.618Z,697
2022-10-19T00:30:08.557Z,701
2022-10-19T00:31:08.586Z,695
2022-10-19T00:32:08.563Z,702
2022-10-19T00:33:08.577Z,690
2022-10-19T00:34:08.564Z,691
2022-10-19T00:35:08.594Z,697
2022-10-19T00:36:08.584Z,700
2022-10-19T00:37:08.562Z,699
2022-10-19T00:38:08.572Z,698
2022-10-19T00:39:08.552Z,698
2022-10-19T00:40:08.553Z,691
2022-10-19T00:41:08.555Z,698
2022-10-19T00:42:08.544Z,691
2022-10-19T00:43:08.559Z,689
2022-10-19T00:44:08.563Z,690
2022-10-19T00:45:08.557Z,694
2022-10-19T00:46:08.549Z,697
2022-10-19T00:47:08.544Z,695
2022-10-19T00:48:08.549Z,697
2022-10-19T00:49:10.729Z,697
2022-10-19T00:50:08.545Z,689
2022-10-19T00:51:08.563Z,697
2022-10-19T00:52:08.542Z,687
2022-10-19T00:53:08.555Z,695
2022-10-19T00:54:08.537Z,683
2022-10-19T00:55:08.550Z,689
2022-10-19T00:56:08.540Z,677
2022-10-19T00:57:08.532Z,686
2022-10-19T00:58:08.527Z,685
2022-10-19T00:59:08.545Z,689
2022-10-19T01:00:08.531Z,683
2022-10-19T01:01:08.576Z,690
2022-10-19T01:02:08.528Z,696
2022-10-19T01:03:08.519Z,681
2022-10-19T01:04:08.542Z,681
2022-10-19T01:05:08.520Z,682
2022-10-19T01:06:08.540Z,683
2022-10-19T01:07:08.543Z,683
2022-10-19T01:08:08.522Z,683
2022-10-19T01:09:08.531Z,696
2022-10-19T01:10:08.529Z,678
2022-10-19T01:11:08.513Z,674
2022-10-19T01:12:08.517Z,685
2022-10-19T01:13:08.508Z,684
2022-10-19T01:14:08.515Z,680
2022-10-19T01:15:08.524Z,683
2022-10-19T01:16:08.508Z,677
2022-10-19T01:17:08.506Z,666
2022-10-19T01:18:08.514Z,673
2022-10-19T01:19:08.503Z,670
2022-10-19T01:20:08.559Z,671
2022-10-19T01:21:08.519Z,689
2022-10-19T01:22:08.506Z,678
2022-10-19T01:23:08.531Z,672
2022-10-19T01:24:08.503Z,673
2022-10-19T01:25:08.510Z,672
2022-10-19T01:26:08.507Z,673
2022-10-19T01:27:08.494Z,673
2022-10-19T01:28:08.493Z,666
2022-10-19T01:29:08.594Z,668
2022-10-19T01:30:08.520Z,669
2022-10-19T01:31:08.497Z,673
2022-10-19T01:32:08.517Z,664
2022-10-19T01:33:08.496Z,678
2022-10-19T01:34:08.487Z,674
2022-10-19T01:35:08.491Z,675
2022-10-19T01:36:08.488Z,663
2022-10-19T01:37:08.495Z,664
2022-10-19T01:38:08.490Z,670
2022-10-19T01:39:08.503Z,662
2022-10-19T01:40:08.483Z,668
2022-10-19T01:41:08.493Z,670
2022-10-19T01:42:08.482Z,662
2022-10-19T01:43:08.506Z,684
2022-10-19T01:44:08.476Z,666
2022-10-19T01:45:08.479Z,668
2022-10-19T01:46:08.489Z,675
2022-10-19T01:47:08.470Z,670
2022-10-19T01:48:08.483Z,671
2022-10-19T01:49:08.482Z,660
2022-10-19T01:50:08.467Z,662
2022-10-19T01:51:08.487Z,665
2022-10-19T01:52:08.487Z,669
2022-10-19T01:53:08.470Z,659
2022-10-19T01:54:08.458Z,670
2022-10-19T01:55:08.487Z,665
2022-10-19T01:56:08.479Z,663
2022-10-19T01:57:08.463Z,674
2022-10-19T01:58:09.664Z,664
2022-10-19T01:59:08.455Z,669
2022-10-19T02:00:08.459Z,661
2022-10-19T02:01:08.630Z,654
2022-10-19T02:02:08.456Z,657
2022-10-19T02:03:08.466Z,665
2022-10-19T02:04:08.459Z,666
2022-10-19T02:05:08.461Z,658
2022-10-19T02:06:08.462Z,658
2022-10-19T02:07:08.446Z,671
2022-10-19T02:08:08.448Z,661
2022-10-19T02:09:08.467Z,664
2022-10-19T02:10:08.505Z,661
2022-10-19T02:11:08.474Z,668
2022-10-19T02:12:08.454Z,665
2022-10-19T02:13:08.460Z,674
2022-10-19T02:14:08.449Z,662
2022-10-19T02:15:08.438Z,664
2022-10-19T02:16:08.449Z,651
2022-10-19T02:17:08.444Z,662
2022-10-19T02:18:08.455Z,661
2022-10-19T02:19:08.436Z,659
2022-10-19T02:20:08.471Z,661
2022-10-19T02:21:08.433Z,663
2022-10-19T02:22:08.447Z,667
2022-10-19T02:23:08.427Z,676
2022-10-19T02:24:08.444Z,661
2022-10-19T02:25:08.427Z,657
2022-10-19T02:26:08.424Z,653
2022-10-19T02:27:08.459Z,659
2022-10-19T02:28:08.460Z,657
2022-10-19T02:29:08.439Z,659
2022-10-19T02:30:08.424Z,667
2022-10-19T02:31:08.438Z,662
2022-10-19T02:32:08.444Z,666
2022-10-19T02:33:08.414Z,663
2022-10-19T02:34:08.432Z,665
2022-10-19T02:35:08.418Z,675
2022-10-19T02:36:08.434Z,662
2022-10-19T02:37:08.421Z,667
2022-10-19T02:38:08.409Z,664
2022-10-19T02:39:08.411Z,675
2022-10-19T02:40:08.421Z,664
2022-10-19T02:41:08.413Z,674
2022-10-19T02:42:08.413Z,669
2022-10-19T02:43:08.436Z,674
2022-10-19T02:44:08.420Z,663
2022-10-19T02:45:08.405Z,667
2022-10-19T02:46:08.402Z,663
2022-10-19T02:47:08.397Z,667
2022-10-19T02:48:08.405Z,673
2022-10-19T02:49:08.414Z,671
2022-10-19T02:50:08.417Z,671
2022-10-19T02:51:08.405Z,670
2022-10-19T02:52:08.402Z,676
2022-10-19T02:53:08.413Z,681
2022-10-19T02:54:08.434Z,686
2022-10-19T02:55:08.401Z,671
2022-10-19T02:56:08.395Z,677
2022-10-19T02:57:08.397Z,659
2022-10-19T02:58:08.394Z,675
2022-10-19T02:59:08.456Z,665
2022-10-19T03:00:08.387Z,666
2022-10-19T03:01:08.461Z,668
2022-10-19T03:02:08.393Z,672
2022-10-19T03:03:08.377Z,669
2022-10-19T03:04:08.404Z,656
2022-10-19T03:05:08.396Z,664
2022-10-19T03:06:08.382Z,662
2022-10-19T03:07:08.379Z,650
2022-10-19T03:08:08.398Z,665
2022-10-19T03:09:08.387Z,653
2022-10-19T03:10:08.408Z,658
2022-10-19T03:11:08.380Z,658
2022-10-19T03:12:08.587Z,663
2022-10-19T03:13:08.379Z,660
2022-10-19T03:14:08.389Z,655
2022-10-19T03:15:08.392Z,653
2022-10-19T03:16:08.392Z,659
2022-10-19T03:17:08.391Z,666
2022-10-19T03:18:08.365Z,657
2022-10-19T03:19:08.365Z,660
2022-10-19T03:20:08.425Z,654
2022-10-19T03:21:08.380Z,656
2022-10-19T03:22:08.362Z,660
2022-10-19T03:23:08.507Z,664
2022-10-19T03:24:08.362Z,660
2022-10-19T03:25:08.366Z,652
2022-10-19T03:26:11.422Z,648
2022-10-19T03:27:08.376Z,650
2022-10-19T03:28:08.351Z,664
2022-10-19T03:29:08.365Z,668
2022-10-19T03:30:09.541Z,660
2022-10-19T03:31:08.377Z,656
2022-10-19T03:32:08.349Z,658
2022-10-19T03:33:08.355Z,656
2022-10-19T03:34:08.365Z,656
2022-10-19T03:35:08.362Z,661
2022-10-19T03:36:08.342Z,654
2022-10-19T03:37:08.345Z,656
2022-10-19T03:38:08.346Z,651
2022-10-19T03:39:08.338Z,659
2022-10-19T03:40:08.355Z,655
2022-10-19T03:41:08.348Z,656
2022-10-19T03:42:08.342Z,655
2022-10-19T03:43:08.353Z,666
2022-10-19T03:44:08.353Z,644
2022-10-19T03:45:08.397Z,649
2022-10-19T03:46:08.351Z,662
2022-10-19T03:47:08.422Z,669
2022-10-19T03:48:08.345Z,684
2022-10-19T03:49:08.347Z,665
2022-10-19T03:50:08.349Z,649
2022-10-19T03:51:08.346Z,646
2022-10-19T03:52:08.453Z,649
2022-10-19T03:53:08.337Z,643
2022-10-19T03:54:08.359Z,653
2022-10-19T03:55:08.324Z,649
2022-10-19T03:56:08.321Z,644
2022-10-19T03:57:08.342Z,646
2022-10-19T03:58:08.327Z,642
2022-10-19T03:59:08.323Z,651
2022-10-19T04:00:08.334Z,653
2022-10-19T04:01:08.422Z,653
2022-10-19T04:02:08.336Z,669
2022-10-19T04:03:08.344Z,653
2022-10-19T04:04:08.319Z,644
2022-10-19T04:05:08.312Z,641
2022-10-19T04:06:08.310Z,656
2022-10-19T04:07:08.324Z,642
2022-10-19T04:08:08.308Z,676
2022-10-19T04:09:08.318Z,647
2022-10-19T04:10:08.325Z,648
2022-10-19T04:11:08.315Z,651
2022-10-19T04:12:08.303Z,639
2022-10-19T04:13:08.350Z,640
2022-10-19T04:15:08.317Z,647
2022-10-19T04:16:08.314Z,648
2022-10-19T04:17:08.392Z,639
2022-10-19T04:18:08.297Z,647
2022-10-19T04:19:08.320Z,650
2022-10-19T04:20:08.339Z,637
2022-10-19T04:21:08.293Z,625
2022-10-19T04:22:08.327Z,626
2022-10-19T04:23:08.334Z,629
2022-10-19T04:24:08.480Z,634
2022-10-19T04:25:08.306Z,654
2022-10-19T04:26:08.291Z,615
2022-10-19T04:27:08.290Z,595
2022-10-19T04:28:08.288Z,609
2022-10-19T04:29:08.367Z,588
2022-10-19T04:30:08.309Z,585
2022-10-19T04:31:08.280Z,559
2022-10-19T04:32:08.298Z,570
2022-10-19T04:33:08.299Z,582
2022-10-19T04:34:08.367Z,573
2022-10-19T04:35:08.306Z,580
2022-10-19T04:36:08.297Z,556
2022-10-19T04:37:08.287Z,541
2022-10-19T04:38:08.279Z,554
2022-10-19T04:39:08.286Z,585
2022-10-19T04:40:12.712Z,556
2022-10-19T04:41:11.272Z,547
2022-10-19T04:42:08.273Z,543
2022-10-19T04:43:08.269Z,545
2022-10-19T04:44:08.283Z,541
2022-10-19T04:45:08.274Z,524
2022-10-19T04:46:08.270Z,530
2022-10-19T04:47:08.273Z,533
2022-10-19T04:48:08.262Z,522
2022-10-19T04:49:08.305Z,532
2022-10-19T04:50:08.263Z,549
2022-10-19T04:51:08.372Z,525
2022-10-19T04:52:08.255Z,529
2022-10-19T04:53:08.257Z,549
2022-10-19T04:54:08.343Z,539
2022-10-19T04:55:08.268Z,546
2022-10-19T04:56:08.254Z,519
2022-10-19T04:57:08.264Z,520
2022-10-19T04:58:08.254Z,527
2022-10-19T04:59:08.247Z,538
2022-10-19T05:00:08.257Z,610
2022-10-19T05:01:08.326Z,624
2022-10-19T05:02:08.255Z,622
2022-10-19T05:03:08.244Z,640
2022-10-19T05:04:08.260Z,635
2022-10-19T05:05:08.247Z,648
2022-10-19T05:06:08.243Z,630
2022-10-19T05:07:08.282Z,692
2022-10-19T05:08:08.244Z,696
2022-10-19T05:09:08.256Z,696
2022-10-19T05:10:08.267Z,722
2022-10-19T05:11:08.235Z,707
2022-10-19T05:12:08.235Z,719
2022-10-19T05:13:08.234Z,740
2022-10-19T05:14:08.246Z,724
2022-10-19T05:15:08.240Z,732
2022-10-19T05:16:08.253Z,721
2022-10-19T05:17:08.236Z,711
2022-10-19T05:18:08.234Z,719
2022-10-19T05:19:08.243Z,727
2022-10-19T05:20:08.296Z,742
2022-10-19T05:21:08.219Z,747
2022-10-19T05:22:08.234Z,750
2022-10-19T05:23:08.251Z,760
2022-10-19T05:24:08.219Z,755
2022-10-19T05:25:08.235Z,773
2022-10-19T05:26:08.290Z,752
2022-10-19T05:27:08.223Z,767
2022-10-19T05:28:08.214Z,763
2022-10-19T05:29:08.255Z,763
2022-10-19T05:30:09.257Z,774
2022-10-19T05:31:08.227Z,773
2022-10-19T05:32:08.211Z,813
2022-10-19T05:33:08.218Z,784
2022-10-19T05:35:08.211Z,786
2022-10-19T05:36:08.228Z,797
2022-10-19T05:37:08.227Z,798
2022-10-19T05:38:08.223Z,802
2022-10-19T05:39:08.241Z,831
2022-10-19T05:40:08.209Z,796
2022-10-19T05:41:08.196Z,801
2022-10-19T05:42:08.223Z,803
2022-10-19T05:43:08.197Z,809
2022-10-19T05:44:08.205Z,828
2022-10-19T05:45:08.217Z,813
2022-10-19T05:46:08.212Z,789
2022-10-19T05:47:08.211Z,817
2022-10-19T05:48:08.190Z,800
2022-10-19T05:49:08.195Z,814
2022-10-19T05:50:08.201Z,817
2022-10-19T05:51:08.192Z,804
2022-10-19T05:52:08.190Z,837
2022-10-19T05:53:08.190Z,827
2022-10-19T05:54:08.190Z,824
2022-10-19T05:55:08.275Z,811
2022-10-19T05:56:08.189Z,843
2022-10-19T05:57:08.190Z,838
2022-10-19T05:58:08.186Z,823
2022-10-19T05:59:08.197Z,821
2022-10-19T06:00:08.183Z,834
2022-10-19T06:01:08.174Z,854
2022-10-19T06:02:08.225Z,837
2022-10-19T06:03:08.187Z,881
2022-10-19T06:04:08.260Z,871
2022-10-19T06:05:08.172Z,849
2022-10-19T06:06:08.208Z,836
2022-10-19T06:07:08.175Z,849
2022-10-19T06:08:08.172Z,870
2022-10-19T06:09:08.165Z,843
2022-10-19T06:10:08.169Z,896
2022-10-19T06:11:08.199Z,861
2022-10-19T06:12:08.171Z,851
2022-10-19T06:13:08.162Z,1116
2022-10-19T06:14:08.169Z,1120
2022-10-19T06:15:08.158Z,1541
2022-10-19T06:16:08.178Z,980
2022-10-19T06:17:08.164Z,1008
2022-10-19T06:18:08.174Z,953
2022-10-19T06:19:08.172Z,895
2022-10-19T06:20:08.215Z,921
2022-10-19T06:21:08.151Z,961
2022-10-19T06:22:08.155Z,900
2022-10-19T06:23:08.151Z,912
2022-10-19T06:24:08.168Z,918
2022-10-19T06:25:08.170Z,893
2022-10-19T06:26:08.164Z,958
2022-10-19T06:27:08.306Z,975
2022-10-19T06:28:08.152Z,974
2022-10-19T06:29:08.146Z,973
2022-10-19T06:30:08.162Z,991
2022-10-19T06:31:09.362Z,998
2022-10-19T06:32:08.153Z,1041
2022-10-19T06:33:08.153Z,984
2022-10-19T06:34:08.216Z,977
2022-10-19T06:35:08.174Z,1014
2022-10-19T06:36:08.142Z,1026
2022-10-19T06:37:08.133Z,974
2022-10-19T06:38:08.164Z,1002
2022-10-19T06:39:08.148Z,1050
2022-10-19T06:40:08.229Z,1046
2022-10-19T06:41:08.126Z,1025
2022-10-19T06:42:08.128Z,1051
2022-10-19T06:43:08.164Z,1052
2022-10-19T06:44:08.123Z,1079
2022-10-19T06:45:08.164Z,1067
2022-10-19T06:46:08.135Z,1096
2022-10-19T06:47:08.134Z,1071
2022-10-19T06:48:08.131Z,1055
2022-10-19T06:49:08.128Z,1073
2022-10-19T06:50:08.143Z,1084
2022-10-19T06:51:08.133Z,1085
2022-10-19T06:52:08.128Z,1071
2022-10-19T06:53:08.134Z,1124
2022-10-19T06:54:08.122Z,1113
2022-10-19T06:55:08.113Z,1079
2022-10-19T06:56:08.113Z,1119
2022-10-19T06:57:08.152Z,1103
2022-10-19T06:58:08.118Z,1123
2022-10-19T06:59:08.140Z,1159
2022-10-19T07:00:08.112Z,1123
2022-10-19T07:01:08.237Z,1204
2022-10-19T07:02:08.118Z,1177
2022-10-19T07:03:08.110Z,1223
2022-10-19T07:04:08.103Z,1157
2022-10-19T07:05:08.108Z,1179
2022-10-19T07:06:08.119Z,1227
2022-10-19T07:07:08.114Z,1245
2022-10-19T07:08:08.218Z,1198
2022-10-19T07:09:08.099Z,1202
2022-10-19T07:10:08.100Z,1218
2022-10-19T07:11:08.103Z,1173
2022-10-19T07:12:08.125Z,1220
2022-10-19T07:14:08.106Z,1175
2022-10-19T07:15:08.119Z,1237
2022-10-19T07:16:08.085Z,1256
2022-10-19T07:17:08.121Z,1235
2022-10-19T07:18:08.096Z,1194
2022-10-19T07:19:08.164Z,1185
2022-10-19T07:20:08.115Z,1170
2022-10-19T07:21:08.092Z,1199
2022-10-19T07:22:08.212Z,1162
2022-10-19T07:23:08.086Z,1184
2022-10-19T07:24:08.081Z,1180
2022-10-19T07:25:08.086Z,1162
2022-10-19T07:26:08.084Z,1203
2022-10-19T07:27:08.090Z,1225
2022-10-19T07:28:08.094Z,1167
2022-10-19T07:29:08.079Z,1122
2022-10-19T07:30:08.079Z,1097
2022-10-19T07:31:08.099Z,1023
2022-10-19T07:32:08.104Z,1070
2022-10-19T07:33:08.137Z,1016
2022-10-19T07:34:08.085Z,1090
2022-10-19T07:35:08.071Z,976
2022-10-19T07:36:08.072Z,978
2022-10-19T07:37:08.083Z,957
2022-10-19T07:38:08.072Z,922
2022-10-19T07:39:08.084Z,958
2022-10-19T07:40:08.073Z,934
2022-10-19T07:41:08.073Z,862
2022-10-19T07:42:08.158Z,875
2022-10-19T07:43:08.065Z,851
2022-10-19T07:44:09.901Z,833
2022-10-19T07:45:08.060Z,857
2022-10-19T07:46:08.069Z,931
2022-10-19T07:47:09.081Z,906
2022-10-19T07:48:08.067Z,936
2022-10-19T07:49:08.065Z,908
2022-10-19T07:50:08.129Z,900
2022-10-19T07:51:08.060Z,959
2022-10-19T07:52:08.066Z,937
2022-10-19T07:53:08.056Z,974
2022-10-19T07:54:08.045Z,1001
2022-10-19T07:55:08.062Z,939
2022-10-19T07:56:08.058Z,957
2022-10-19T07:57:08.061Z,950
2022-10-19T07:58:08.073Z,1015
2022-10-19T07:59:08.052Z,1015
2022-10-19T08:00:08.038Z,1025
2022-10-19T08:01:08.055Z,994
2022-10-19T08:02:08.176Z,1019
2022-10-19T08:05:11.599Z,1020
2022-10-19T08:06:08.029Z,1033
2022-10-19T08:07:08.038Z,1021
2022-10-19T08:08:08.044Z,1022
2022-10-19T08:09:08.144Z,1010
2022-10-19T08:10:08.026Z,1049
2022-10-19T08:11:08.026Z,1038
2022-10-19T08:12:11.167Z,1071
2022-10-19T08:13:08.058Z,1086
2022-10-19T08:14:08.027Z,1057
2022-10-19T08:15:08.045Z,1075
2022-10-19T08:16:08.023Z,1087
2022-10-19T08:17:08.026Z,1090
2022-10-19T08:18:08.054Z,1066
2022-10-19T08:19:08.069Z,1102
2022-10-19T08:20:08.052Z,1039
2022-10-19T08:21:08.015Z,1069
2022-10-19T08:22:08.011Z,1100
2022-10-19T08:23:08.033Z,1120
2022-10-19T08:24:08.015Z,1100
2022-10-19T08:25:08.016Z,1100
2022-10-19T08:26:08.006Z,1168
2022-10-19T08:27:08.131Z,1120
2022-10-19T08:28:08.016Z,1121
2022-10-19T08:29:08.009Z,1139
2022-10-19T08:30:08.004Z,1117
2022-10-19T08:31:08.000Z,1139
2022-10-19T08:32:08.018Z,1118
2022-10-19T08:33:08.005Z,1143
2022-10-19T08:34:07.999Z,1129
2022-10-19T08:35:10.744Z,1145
2022-10-19T08:36:07.995Z,1165
2022-10-19T08:37:19.777Z,1145
2022-10-19T08:38:08.014Z,1143
2022-10-19T08:39:07.991Z,1178
2022-10-19T08:40:08.001Z,1162
2022-10-19T08:41:08.004Z,1167
2022-10-19T08:42:08.035Z,1159
2022-10-19T08:43:08.005Z,1159
2022-10-19T08:44:10.122Z,1196
2022-10-19T08:45:07.990Z,1166
2022-10-19T08:46:07.990Z,1169
2022-10-19T08:47:08.737Z,1148
2022-10-19T08:48:07.992Z,1246
2022-10-19T08:49:07.981Z,1157
2022-10-19T08:50:07.979Z,1151
2022-10-19T08:51:08.035Z,1184
2022-10-19T08:52:08.002Z,1149
2022-10-19T08:53:07.983Z,1157
2022-10-19T08:54:07.985Z,1163
2022-10-19T08:55:07.974Z,1176
2022-10-19T08:56:07.990Z,1216
2022-10-19T08:57:08.102Z,1171
2022-10-19T08:58:07.969Z,1171
2022-10-19T08:59:07.999Z,1172
2022-10-19T09:00:07.975Z,1156
2022-10-19T09:01:07.979Z,1188
2022-10-19T09:02:07.975Z,1184
2022-10-19T09:03:07.963Z,1183
2022-10-19T09:04:07.964Z,1192
2022-10-19T09:05:07.965Z,1251
2022-10-19T09:06:07.979Z,1165
2022-10-19T09:07:08.003Z,1199
2022-10-19T09:08:07.964Z,1189
2022-10-19T09:09:08.034Z,1232
2022-10-19T09:10:07.996Z,1212
2022-10-19T09:11:07.964Z,1214
2022-10-19T09:12:07.957Z,1218
2022-10-19T09:13:07.950Z,1200
2022-10-19T09:14:07.975Z,1209
2022-10-19T09:15:07.949Z,1240
2022-10-19T09:16:07.950Z,1230
2022-10-19T09:17:07.989Z,1213
2022-10-19T09:18:07.954Z,1253
2022-10-19T09:19:07.942Z,1244
2022-10-19T09:20:07.953Z,1214
2022-10-19T09:21:07.991Z,1257
2022-10-19T09:22:07.962Z,1260
2022-10-19T09:23:13.042Z,1226
2022-10-19T09:24:07.942Z,1283
2022-10-19T09:25:07.960Z,1220
2022-10-19T09:26:07.936Z,1243
2022-10-19T09:27:07.959Z,1229
2022-10-19T09:28:07.946Z,1242
2022-10-19T09:29:07.940Z,1270
2022-10-19T09:30:08.005Z,1259
2022-10-19T09:31:07.938Z,1225
2022-10-19T09:32:07.937Z,1210
2022-10-19T09:33:09.999Z,1207
2022-10-19T09:34:07.934Z,1200
2022-10-19T09:35:07.953Z,1185
2022-10-19T09:36:07.933Z,1168
2022-10-19T09:37:07.978Z,1173
2022-10-19T09:38:07.929Z,1173
2022-10-19T09:39:07.946Z,1175
2022-10-19T09:40:07.985Z,1165
2022-10-19T09:41:07.923Z,1168
2022-10-19T09:42:07.921Z,1157
2022-10-19T09:43:07.919Z,1162
2022-10-19T09:44:07.918Z,1162
2022-10-19T09:45:07.931Z,1155
2022-10-19T09:46:16.639Z,1140
2022-10-19T09:47:10.209Z,1164
2022-10-19T09:48:12.816Z,1199
2022-10-19T09:49:07.912Z,1164
2022-10-19T09:50:07.929Z,1216
2022-10-19T09:51:07.911Z,1181
2022-10-19T09:52:07.908Z,1179
2022-10-19T09:53:07.904Z,1259
2022-10-19T09:54:07.902Z,1176
2022-10-19T09:55:07.950Z,1188
2022-10-19T09:56:07.911Z,1175
2022-10-19T09:57:07.904Z,1176
2022-10-19T09:58:07.901Z,1170
2022-10-19T09:59:07.902Z,1120
2022-10-19T10:00:07.913Z,1037
2022-10-19T10:01:07.911Z,1023
2022-10-19T10:02:07.938Z,1085
2022-10-19T10:03:07.966Z,1055
2022-10-19T10:04:07.901Z,1105
2022-10-19T10:05:07.917Z,1028
2022-10-19T10:06:07.903Z,982
2022-10-19T10:07:07.905Z,950
2022-10-19T10:08:07.896Z,982
2022-10-19T10:09:07.916Z,937
2022-10-19T10:10:07.905Z,1009
2022-10-19T10:11:07.915Z,1058
2022-10-19T10:12:07.912Z,1083
2022-10-19T10:13:07.885Z,1050
2022-10-19T10:14:09.943Z,1096
2022-10-19T10:15:07.911Z,1096
2022-10-19T10:16:07.878Z,1097
2022-10-19T10:17:07.898Z,1072
2022-10-19T10:18:07.880Z,1099
2022-10-19T10:19:07.889Z,1079
2022-10-19T10:20:07.882Z,1122
2022-10-19T10:21:07.922Z,1113
2022-10-19T10:22:07.883Z,1099
2022-10-19T10:23:07.871Z,1115
2022-10-19T10:24:07.881Z,1101
2022-10-19T10:25:07.874Z,1105
2022-10-19T10:26:07.882Z,1120
2022-10-19T10:27:07.897Z,1145
2022-10-19T10:28:07.865Z,1137
2022-10-19T10:29:07.870Z,1125
2022-10-19T10:30:07.867Z,1156
2022-10-19T10:31:07.889Z,1148
2022-10-19T10:32:07.872Z,1131
2022-10-19T10:33:20.497Z,1172
2022-10-19T10:34:22.500Z,1186
2022-10-19T10:35:07.862Z,1146
2022-10-19T10:36:07.868Z,1165
2022-10-19T10:37:07.878Z,1159
2022-10-19T10:38:07.865Z,1177
2022-10-19T10:39:07.869Z,1169
2022-10-19T10:40:07.881Z,1217
2022-10-19T10:41:07.868Z,1175
2022-10-19T10:42:07.865Z,1177
2022-10-19T10:43:07.895Z,1180
2022-10-19T10:44:07.860Z,1181
2022-10-19T10:45:07.863Z,1192
2022-10-19T10:46:07.842Z,1223
2022-10-19T10:47:07.858Z,1196
2022-10-19T10:49:07.848Z,1229
2022-10-19T10:50:07.858Z,1228
2022-10-19T10:51:07.837Z,1195
2022-10-19T10:52:07.839Z,1183
2022-10-19T10:53:07.859Z,1220
2022-10-19T10:54:07.849Z,1200
2022-10-19T10:55:07.839Z,1221
2022-10-19T10:56:07.834Z,1215
2022-10-19T10:57:07.949Z,1207
2022-10-19T10:58:07.848Z,1231
2022-10-19T10:59:07.863Z,1237
2022-10-19T11:00:07.851Z,1218
2022-10-19T11:01:08.034Z,1258
2022-10-19T11:02:07.902Z,1267
2022-10-19T11:03:07.840Z,1273
2022-10-19T11:04:07.824Z,1250
2022-10-19T11:05:07.831Z,1244
2022-10-19T11:06:07.823Z,1205
2022-10-19T11:07:07.818Z,1237
2022-10-19T11:08:07.837Z,1259
2022-10-19T11:09:07.909Z,1253
2022-10-19T11:10:07.818Z,1274
2022-10-19T11:11:07.821Z,1346
2022-10-19T11:12:07.820Z,1245
2022-10-19T11:13:07.825Z,1308
2022-10-19T11:14:07.811Z,1339
2022-10-19T11:15:07.843Z,1384
2022-10-19T11:16:07.813Z,1410
2022-10-19T11:17:07.814Z,1388
2022-10-19T11:18:07.832Z,1366
2022-10-19T11:19:07.850Z,1376
2022-10-19T11:20:07.837Z,1378
2022-10-19T11:21:07.845Z,1337
2022-10-19T11:22:07.803Z,1276
2022-10-19T11:23:07.822Z,1386
2022-10-19T11:24:07.817Z,1377
2022-10-19T11:25:07.832Z,1409
2022-10-19T11:26:07.801Z,1370
2022-10-19T11:27:07.804Z,1375
2022-10-19T11:28:07.800Z,1386
2022-10-19T11:29:07.803Z,1329
2022-10-19T11:30:07.811Z,1307
2022-10-19T11:31:07.820Z,1387
2022-10-19T11:32:07.823Z,1423
2022-10-19T11:33:07.790Z,1376
2022-10-19T11:34:07.795Z,1317
2022-10-19T11:35:07.809Z,1372
2022-10-19T11:36:07.785Z,1385
2022-10-19T11:37:07.808Z,1408
2022-10-19T11:38:19.671Z,1403
2022-10-19T11:39:07.786Z,1424
2022-10-19T11:40:07.785Z,1348
2022-10-19T11:41:23.102Z,1402
2022-10-19T11:42:07.803Z,1359
2022-10-19T11:43:07.780Z,1363
2022-10-19T11:44:07.792Z,1352
2022-10-19T11:45:07.781Z,1390
2022-10-19T11:46:07.792Z,1365
2022-10-19T11:47:07.800Z,1354
2022-10-19T11:48:07.774Z,1371
2022-10-19T11:49:07.793Z,1352
2022-10-19T11:51:21.002Z,1366
2022-10-19T11:52:07.808Z,1370
2022-10-19T11:53:07.768Z,1376
2022-10-19T11:54:11.178Z,1384
2022-10-19T11:55:07.777Z,1372
2022-10-19T11:56:07.764Z,1394
2022-10-19T11:57:11.410Z,1403
2022-10-19T11:58:07.765Z,1369
2022-10-19T11:59:07.797Z,1359
2022-10-19T12:00:15.153Z,1385
2022-10-19T12:01:07.760Z,1390
2022-10-19T12:02:07.860Z,1390
2022-10-19T12:03:07.818Z,1440
2022-10-19T12:04:07.760Z,1385
2022-10-19T12:05:07.761Z,1398
2022-10-19T12:06:07.753Z,1380
2022-10-19T12:07:07.756Z,1375
2022-10-19T12:08:07.836Z,1360
2022-10-19T12:09:07.807Z,1386
2022-10-19T12:10:07.751Z,1385
2022-10-19T12:11:07.751Z,1415
2022-10-19T12:12:07.780Z,1424
2022-10-19T12:13:07.750Z,1424
2022-10-19T12:14:07.748Z,1419
2022-10-19T12:15:07.744Z,1388
2022-10-19T12:16:07.757Z,1417
2022-10-19T12:17:07.788Z,1400
2022-10-19T12:18:07.744Z,1412
2022-10-19T12:19:07.782Z,1426
2022-10-19T12:20:07.739Z,1384
2022-10-19T12:21:07.784Z,1435
2022-10-19T12:22:07.736Z,1440
2022-10-19T12:23:07.742Z,1429
2022-10-19T12:24:07.735Z,1446
2022-10-19T12:25:07.745Z,1425
2022-10-19T12:26:07.810Z,1429
2022-10-19T12:27:07.759Z,1413
2022-10-19T12:28:07.726Z,1438
2022-10-19T12:29:07.746Z,1412
2022-10-19T12:30:07.728Z,1406
2022-10-19T12:31:07.747Z,1413
2022-10-19T12:32:07.743Z,1408
2022-10-19T12:33:07.727Z,1435
2022-10-19T12:34:07.723Z,1441
2022-10-19T12:35:07.807Z,1433
2022-10-19T12:36:07.740Z,1405
2022-10-19T12:37:07.715Z,1398
2022-10-19T12:38:07.724Z,1393
2022-10-19T12:39:07.713Z,1402
2022-10-19T12:40:07.730Z,1397
2022-10-19T12:41:07.716Z,1411
2022-10-19T12:42:07.724Z,1406
2022-10-19T12:43:07.731Z,1417
2022-10-19T12:44:07.713Z,1463
2022-10-19T12:45:07.711Z,1422
2022-10-19T12:46:07.712Z,1447
2022-10-19T12:47:07.723Z,1432
2022-10-19T12:48:07.707Z,1427
2022-10-19T12:49:07.718Z,1435
2022-10-19T12:50:07.799Z,1430
2022-10-19T12:51:07.733Z,1420
2022-10-19T12:52:07.708Z,1469
2022-10-19T12:53:07.714Z,1452
2022-10-19T12:54:07.695Z,1424
2022-10-19T12:55:07.717Z,1432
2022-10-19T12:56:07.694Z,1465
2022-10-19T12:57:07.705Z,1439
2022-10-19T12:58:07.700Z,1458
2022-10-19T12:59:07.709Z,1407
2022-10-19T13:00:07.700Z,1408
2022-10-19T13:01:07.767Z,1428
2022-10-19T13:02:07.709Z,1424
2022-10-19T13:03:07.699Z,1443
2022-10-19T13:04:07.704Z,1420
2022-10-19T13:05:07.691Z,1440
2022-10-19T13:06:07.800Z,1409
2022-10-19T13:07:07.725Z,1428
2022-10-19T13:08:10.675Z,1410
2022-10-19T13:09:07.772Z,1419
2022-10-19T13:10:07.775Z,1406
2022-10-19T13:11:07.683Z,1407
2022-10-19T13:12:07.683Z,1380
2022-10-19T13:13:07.695Z,1396
2022-10-19T13:14:07.693Z,1384
2022-10-19T13:15:07.671Z,1426
2022-10-19T13:16:07.695Z,1401
2022-10-19T13:17:07.676Z,1398
2022-10-19T13:18:07.669Z,1412
2022-10-19T13:19:07.687Z,1384
2022-10-19T13:20:07.714Z,1369
2022-10-19T13:21:08.530Z,1385
2022-10-19T13:22:07.667Z,1360
2022-10-19T13:23:07.710Z,1379
2022-10-19T13:24:07.678Z,1368
2022-10-19T13:25:07.664Z,1396
2022-10-19T13:26:07.660Z,1358
2022-10-19T13:27:07.663Z,1362
2022-10-19T13:28:07.692Z,1393
2022-10-19T13:29:07.658Z,1353
2022-10-19T13:30:07.657Z,1395
2022-10-19T13:31:11.538Z,1376
2022-10-19T13:32:07.661Z,1378
2022-10-19T13:33:07.669Z,1379
2022-10-19T13:34:07.655Z,1398
2022-10-19T13:35:07.653Z,1363
2022-10-19T13:36:07.661Z,1346
2022-10-19T13:37:07.653Z,1361
2022-10-19T13:38:07.690Z,1379
2022-10-19T13:39:07.672Z,1382